Flight Track Log - Related Links

Times and Time Zones

All times are in EDT time to prevent confusion due to time zone crossing. See the JIA2208 flight status page for this flight to view local times or setup timezone preferences in your user account.


Time Position Orientation Groundspeed Altitude Reporting Facility
EDT Latitude Longitude Course Direction KTS MPH feet Rate Location/Type
Mon 05:36:20 AM 33.4772 -82.0239 354° North 353 406 3,800  Level Atlanta Center
Mon 05:37:00 AM 33.6234 -82.0070 346° North  Level FlightAware Approximate
Mon 05:37:20 AM 33.5403 -82.0625 333° Northwest 296 341 6,500  Level Atlanta Center
Mon 05:38:00 AM 33.7080 -82.0324 346° North  Level FlightAware Approximate
Mon 05:38:20 AM 33.6100 -82.1031 334° Northwest 269 310 9,100  Level Atlanta Center
Mon 05:39:00 AM 33.7930 -82.0553 351° North  Level FlightAware Approximate
Mon 05:39:20 AM 33.6850 -82.0939 North 259 298 11,400  Level Atlanta Center
Mon 05:40:00 AM 33.8790 -82.0725 351° North  Level FlightAware Approximate
Mon 05:40:20 AM 33.7594 -82.0525 25° Northeast 259 298 13,500  Level Atlanta Center
Mon 05:41:00 AM 33.9653 -82.0873 354° North  Level FlightAware Approximate
Mon 05:41:20 AM 33.8339 -82.0131 24° Northeast 288 331 15,300  Level Atlanta Center
Mon 05:42:20 AM 33.9186 -81.9686 24° Northeast 308 354 16,900 800 Climbing Atlanta Center
Mon 05:43:20 AM 34.0078 -81.9239 23° Northeast 329 379 16,900  Level Atlanta Center
Mon 05:44:20 AM 34.1008 -81.8739 24° Northeast 343 395 16,900 50 Level Atlanta Center
Mon 05:45:20 AM 34.1939 -81.8264 23° Northeast 355 409 17,000 50 Climbing Atlanta Center
Mon 05:46:20 AM 34.2908 -81.7733 24° Northeast 365 420 17,000  Level Atlanta Center
Mon 05:47:20 AM 34.3881 -81.7256 22° Northeast 372 428 17,000  Level Atlanta Center
Mon 05:47:50 AM 34.4439 -81.6964 23° Northeast 377 434 17,000 -300 Level Atlanta Center
Mon 05:48:20 AM 34.4833 -81.6775 22° Northeast 372 428 16,700 -1,375 Descending Atlanta Center
Mon 05:48:38 AM 34.5225 -81.6564 24° Northeast 367 422 15,900 -1,700 Descending Atlanta Center
Mon 05:49:20 AM 34.5719 -81.6272 26° Northeast 367 422 15,000 -1,672 Descending Atlanta Center
Mon 05:49:39 AM 34.6175 -81.6081 19° North 360 414 14,200 -2,100 Descending Atlanta Center
Mon 05:50:20 AM 34.6836 -81.5733 23° Northeast 374 430 12,900 -1,869 Descending Atlanta Center
Mon 05:50:40 AM 34.7144 -81.5522 29° Northeast 390 449 12,300 -900 Descending Atlanta Center
Mon 05:51:20 AM 34.7678 -81.5025 37° Northeast 366 421 12,000 -180 Descending Atlanta Center
Mon 05:52:20 AM 34.8428 -81.4042 47° Northeast 373 429 12,000  Level Atlanta Center
Mon 05:52:35 AM 34.8611 -81.3808 46° Northeast 389 448 12,000 -900 Level Atlanta Center
Mon 05:53:20 AM 34.9158 -81.3081 47° Northeast 384 442 11,100 -1,180 Descending Atlanta Center
Mon 05:53:36 AM 34.9342 -81.2847 46° Northeast 391 450 10,800 -1,100 Descending Atlanta Center
Mon 05:54:20 AM 34.9889 -81.2169 45° Northeast 384 442 10,000 -716 Descending Atlanta Center
Mon 05:54:43 AM 35.0194 -81.1806 44° Northeast 375 432 10,000  Level Atlanta Center
Mon 05:55:20 AM 35.0619 -81.1308 44° Northeast 373 429 10,000  Level Atlanta Center
Mon 05:55:37 AM 35.0911 -81.1197 17° North 358 412 10,000 -200 Level Atlanta Center
Mon 05:56:20 AM 35.1489 -81.0997 16° North 323 372 9,800 -787 Descending Atlanta Center
Mon 05:56:38 AM 35.1736 -81.0889 20° North 275 316 9,200 -1,700 Descending Atlanta Center
Mon 05:57:20 AM 35.2150 -81.0719 18° North 295 339 8,100 -1,655 Descending Atlanta Center
Mon 05:58:34 AM 35.2925 -80.9981 38° Northeast 273 314 6,000 -1,343 Descending Atlanta Center
Mon 05:59:34 AM 35.3431 -80.9350 45° Northeast 232 267 5,100 -645 Descending Atlanta Center
Mon 06:00:35 AM 35.3811 -80.8725 53° Northeast 224 258 4,700 -393 Descending Atlanta Center

Login

Don't have an account? Register now (free) for customized features, flight alerts, and more!